createdAt,value
2019-03-31T00:01:07.282Z,87.61
2019-03-31T00:01:53.486Z,87.71
2019-03-31T00:02:53.521Z,87.99
2019-03-31T00:03:53.460Z,88.37
2019-03-31T00:04:53.457Z,88.09
2019-03-31T00:05:53.439Z,87.99
2019-03-31T00:06:53.429Z,87.95
2019-03-31T00:07:53.422Z,87.95
2019-03-31T00:08:53.407Z,88.61
2019-03-31T00:09:53.397Z,88.42
2019-03-31T00:10:53.385Z,88.52
2019-03-31T00:11:53.437Z,89.37
2019-03-31T00:12:53.363Z,89.18
2019-03-31T00:13:53.353Z,89.66
2019-03-31T00:14:53.346Z,89.56
2019-03-31T00:15:53.331Z,89.37
2019-03-31T00:16:53.323Z,90.42
2019-03-31T00:17:53.313Z,90.33
2019-03-31T00:18:53.299Z,90.33
2019-03-31T00:19:53.288Z,90.61
2019-03-31T00:20:53.277Z,90.52
2019-03-31T00:21:53.269Z,90.33
2019-03-31T00:22:53.257Z,90.42
2019-03-31T00:23:53.245Z,89.94
2019-03-31T00:24:53.682Z,90.14
2019-03-31T00:25:53.224Z,90.04
2019-03-31T00:26:53.215Z,89.85
2019-03-31T00:27:53.201Z,90.33
2019-03-31T00:28:53.190Z,90.42
2019-03-31T00:29:53.180Z,90.89
2019-03-31T00:30:53.169Z,91.08
2019-03-31T00:31:53.160Z,90.52
2019-03-31T00:32:53.146Z,90.14
2019-03-31T00:33:53.137Z,90.33
2019-03-31T00:34:53.126Z,90.42
2019-03-31T00:35:53.114Z,90.52
2019-03-31T00:36:53.104Z,90.33
2019-03-31T00:37:53.097Z,90.42
2019-03-31T00:38:53.081Z,90.23
2019-03-31T00:39:53.071Z,90.42
2019-03-31T00:40:53.072Z,90.33
2019-03-31T00:41:53.047Z,90.42
2019-03-31T00:42:53.038Z,90.61
2019-03-31T00:43:53.025Z,90.23
2019-03-31T00:44:53.015Z,90.52
2019-03-31T00:45:53.004Z,90.14
2019-03-31T00:46:52.993Z,90.61
2019-03-31T00:47:52.981Z,90.23
2019-03-31T00:48:52.971Z,90.42
2019-03-31T00:49:52.962Z,90.42
2019-03-31T00:50:52.951Z,90.61
2019-03-31T00:51:52.938Z,90.89
2019-03-31T00:52:52.929Z,91.08
2019-03-31T00:53:52.916Z,90.80
2019-03-31T00:54:52.906Z,90.99
2019-03-31T00:55:52.896Z,90.42
2019-03-31T00:56:52.884Z,90.52
2019-03-31T00:57:52.878Z,90.52
2019-03-31T00:58:52.864Z,90.04
2019-03-31T00:59:52.852Z,90.52
2019-03-31T01:00:52.841Z,90.52
2019-03-31T01:01:52.830Z,89.85
2019-03-31T01:02:52.818Z,90.23
2019-03-31T01:03:52.857Z,89.94
2019-03-31T01:04:52.796Z,90.52
2019-03-31T01:05:52.786Z,90.33
2019-03-31T01:06:52.862Z,90.14
2019-03-31T01:07:52.764Z,90.23
2019-03-31T01:08:52.756Z,90.33
2019-03-31T01:09:52.742Z,90.23
2019-03-31T01:10:52.731Z,90.42
2019-03-31T01:11:52.719Z,91.08
2019-03-31T01:12:52.708Z,90.85
2019-03-31T01:13:52.697Z,90.28
2019-03-31T01:14:52.686Z,90.23
2019-03-31T01:15:52.677Z,90.33
2019-03-31T01:16:52.663Z,90.28
2019-03-31T01:17:52.653Z,90.42
2019-03-31T01:18:52.643Z,90.47
2019-03-31T01:19:52.632Z,90.61
2019-03-31T01:20:52.619Z,90.33
2019-03-31T01:21:52.613Z,90.37
2019-03-31T01:22:52.600Z,91.33
2019-03-31T01:23:52.587Z,91.04
2019-03-31T01:24:52.574Z,91.61
2019-03-31T01:25:52.564Z,91.52
2019-03-31T01:26:52.553Z,91.33
2019-03-31T01:27:52.540Z,91.23
2019-03-31T01:28:52.530Z,91.33
2019-03-31T01:29:52.522Z,91.33
2019-03-31T01:30:52.509Z,91.52
2019-03-31T01:31:52.496Z,91.23
2019-03-31T01:32:52.486Z,91.13
2019-03-31T01:33:52.474Z,91.61
2019-03-31T01:34:52.464Z,91.42
2019-03-31T01:35:52.452Z,91.13
2019-03-31T01:36:52.454Z,91.61
2019-03-31T01:37:52.430Z,91.42
2019-03-31T01:38:52.420Z,91.04
2019-03-31T01:39:52.407Z,91.13
2019-03-31T01:40:52.397Z,91.71
2019-03-31T01:41:52.388Z,92.08
2019-03-31T01:42:52.376Z,92.18
2019-03-31T01:43:52.365Z,92.08
2019-03-31T01:44:52.353Z,92.08
2019-03-31T01:45:52.344Z,92.08
2019-03-31T01:46:52.331Z,92.46
2019-03-31T01:47:52.324Z,92.18
2019-03-31T01:48:52.308Z,92.27
2019-03-31T01:49:52.297Z,91.80
2019-03-31T01:50:52.286Z,92.37
2019-03-31T01:51:52.274Z,93.13
2019-03-31T01:52:52.264Z,92.94
2019-03-31T01:53:52.252Z,92.94
2019-03-31T01:54:52.242Z,93.70
2019-03-31T01:55:52.231Z,93.23
2019-03-31T01:56:52.219Z,93.41
2019-03-31T01:57:52.208Z,93.13
2019-03-31T01:58:52.197Z,92.94
2019-03-31T01:59:52.185Z,93.32
2019-03-31T02:00:52.176Z,93.41
2019-03-31T02:02:03.574Z,93.32
2019-03-31T02:02:52.155Z,93.70
2019-03-31T02:03:52.145Z,93.23
2019-03-31T02:04:52.180Z,92.94
2019-03-31T02:05:52.119Z,93.18
2019-03-31T02:06:52.110Z,93.27
2019-03-31T02:07:52.101Z,93.37
2019-03-31T02:08:52.161Z,93.94
2019-03-31T02:09:52.080Z,94.13
2019-03-31T02:10:52.065Z,94.60
2019-03-31T02:11:52.054Z,94.42
2019-03-31T02:12:52.050Z,94.60
2019-03-31T02:13:52.032Z,94.32
2019-03-31T02:14:52.022Z,94.89
2019-03-31T02:15:52.016Z,95.75
2019-03-31T02:16:52.006Z,96.41
2019-03-31T02:17:51.990Z,96.41
2019-03-31T02:18:51.980Z,96.88
2019-03-31T02:19:51.969Z,96.98
2019-03-31T02:20:51.957Z,96.98
2019-03-31T02:21:51.948Z,97.27
2019-03-31T02:22:51.934Z,97.27
2019-03-31T02:23:51.923Z,97.17
2019-03-31T02:24:51.919Z,96.98
2019-03-31T02:25:51.901Z,97.45
2019-03-31T02:26:51.891Z,96.31
2019-03-31T02:27:51.878Z,96.31
2019-03-31T02:28:51.868Z,95.94
2019-03-31T02:29:51.858Z,95.94
2019-03-31T02:30:51.850Z,96.12
2019-03-31T02:31:51.835Z,96.12
2019-03-31T02:32:51.824Z,96.12
2019-03-31T02:33:51.816Z,95.94
2019-03-31T02:34:51.803Z,96.31
2019-03-31T02:35:51.840Z,96.69
2019-03-31T02:36:51.780Z,97.07
2019-03-31T02:37:51.845Z,96.98
2019-03-31T02:38:51.759Z,96.41
2019-03-31T02:39:51.746Z,96.93
2019-03-31T02:40:51.735Z,96.98
2019-03-31T02:41:51.729Z,97.36
2019-03-31T02:42:51.714Z,97.92
2019-03-31T02:43:51.701Z,97.92
2019-03-31T02:44:51.689Z,97.74
2019-03-31T02:45:51.678Z,97.64
2019-03-31T02:46:51.669Z,98.16
2019-03-31T02:47:51.656Z,97.69
2019-03-31T02:48:51.648Z,97.88
2019-03-31T02:49:51.636Z,97.97
2019-03-31T02:50:51.631Z,98.54
2019-03-31T02:51:51.613Z,98.54
2019-03-31T02:52:51.600Z,98.45
2019-03-31T02:53:51.590Z,98.26
2019-03-31T02:54:51.578Z,98.54
2019-03-31T02:55:51.578Z,98.54
2019-03-31T02:56:51.558Z,98.73
2019-03-31T02:57:51.551Z,98.73
2019-03-31T02:58:51.549Z,98.73
2019-03-31T02:59:51.521Z,99.58
2019-03-31T03:00:51.511Z,98.73
2019-03-31T03:01:51.502Z,99.30
2019-03-31T03:02:51.489Z,99.11
2019-03-31T03:03:51.477Z,99.58
2019-03-31T03:04:51.472Z,99.40
2019-03-31T03:05:51.458Z,99.40
2019-03-31T03:06:51.445Z,99.40
2019-03-31T03:07:51.437Z,99.40
2019-03-31T03:08:51.422Z,99.21
2019-03-31T03:09:51.410Z,99.68
2019-03-31T03:10:51.401Z,99.40
2019-03-31T03:11:51.392Z,99.77
2019-03-31T03:12:51.376Z,99.77
2019-03-31T03:13:51.368Z,99.68
2019-03-31T03:14:51.355Z,99.99
2019-03-31T03:15:51.343Z,99.99
2019-03-31T03:16:51.430Z,99.77
2019-03-31T03:17:51.413Z,99.99
2019-03-31T03:18:51.370Z,99.97
2019-03-31T03:19:51.301Z,99.97
2019-03-31T03:20:51.288Z,99.99
2019-03-31T03:21:51.280Z,99.99
2019-03-31T03:22:51.267Z,99.99
2019-03-31T03:23:51.253Z,99.99
2019-03-31T03:24:51.250Z,99.99
2019-03-31T03:25:56.432Z,99.99
2019-03-31T03:26:51.220Z,99.99
2019-03-31T03:27:51.209Z,99.99
2019-03-31T03:28:51.197Z,99.99
2019-03-31T03:29:51.197Z,99.99
2019-03-31T03:30:51.266Z,99.99
2019-03-31T03:31:51.235Z,99.99
2019-03-31T03:33:13.287Z,99.99
2019-03-31T03:33:51.147Z,99.99
2019-03-31T03:34:51.131Z,99.99
2019-03-31T03:35:51.119Z,99.99
2019-03-31T03:36:51.107Z,99.99
2019-03-31T03:37:51.102Z,99.99
2019-03-31T03:38:51.085Z,99.99
2019-03-31T03:39:51.073Z,99.99
2019-03-31T03:40:51.063Z,99.99
2019-03-31T03:41:51.051Z,99.99
2019-03-31T03:42:51.042Z,99.99
2019-03-31T03:43:55.781Z,99.99
2019-03-31T03:44:51.016Z,99.99
2019-03-31T03:45:51.006Z,99.99
2019-03-31T03:46:50.993Z,99.99
2019-03-31T03:47:50.981Z,99.99
2019-03-31T03:48:51.071Z,99.99
2019-03-31T03:49:50.974Z,99.99
2019-03-31T03:50:51.011Z,99.99
2019-03-31T03:51:50.934Z,99.99
2019-03-31T03:52:50.930Z,99.99
2019-03-31T03:53:50.920Z,99.99
2019-03-31T03:54:50.901Z,99.99
2019-03-31T03:55:50.889Z,99.99
2019-03-31T03:56:50.878Z,99.99
2019-03-31T03:57:50.867Z,99.99
2019-03-31T03:58:50.856Z,99.99
2019-03-31T03:59:50.843Z,99.99
2019-03-31T04:00:50.837Z,99.99
2019-03-31T04:01:50.823Z,99.99
2019-03-31T04:02:50.814Z,99.99
2019-03-31T04:03:50.801Z,99.99
2019-03-31T04:04:50.818Z,99.99
2019-03-31T04:05:50.775Z,99.99
2019-03-31T04:06:50.772Z,99.99
2019-03-31T04:07:50.756Z,99.99
2019-03-31T04:08:50.751Z,99.99
2019-03-31T04:09:50.742Z,99.99
2019-03-31T04:10:50.718Z,99.99
2019-03-31T04:11:50.724Z,99.99
2019-03-31T04:12:50.699Z,99.99
2019-03-31T04:13:50.710Z,99.99
2019-03-31T04:14:50.715Z,99.99
2019-03-31T04:15:50.659Z,99.99
2019-03-31T04:16:50.656Z,99.99
2019-03-31T04:17:50.645Z,99.99
2019-03-31T04:18:50.629Z,99.99
2019-03-31T04:19:50.625Z,99.99
2019-03-31T04:20:50.623Z,99.99
2019-03-31T04:21:50.595Z,99.99
2019-03-31T04:22:50.579Z,99.99
2019-03-31T04:23:50.577Z,99.99
2019-03-31T04:24:50.556Z,99.99
2019-03-31T04:25:50.546Z,99.99
2019-03-31T04:26:50.538Z,99.99
2019-03-31T04:27:50.521Z,99.99
2019-03-31T04:28:50.510Z,99.99
2019-03-31T04:29:50.504Z,99.99
2019-03-31T04:30:50.490Z,99.99
2019-03-31T04:31:50.474Z,99.99
2019-03-31T04:32:50.465Z,99.99
2019-03-31T04:33:52.860Z,99.99
2019-03-31T04:34:50.471Z,99.99
2019-03-31T04:35:50.427Z,99.99
2019-03-31T04:36:50.421Z,99.99
2019-03-31T04:37:50.407Z,99.99
2019-03-31T04:38:50.413Z,99.99
2019-03-31T04:39:50.398Z,99.99
2019-03-31T04:40:50.373Z,99.99
2019-03-31T04:41:50.360Z,99.99
2019-03-31T04:42:50.348Z,99.99
2019-03-31T04:43:50.335Z,99.99
2019-03-31T04:44:50.325Z,99.99
2019-03-31T04:45:50.312Z,99.99
2019-03-31T04:46:50.304Z,99.99
2019-03-31T04:47:50.291Z,99.99
2019-03-31T04:48:50.283Z,99.99
2019-03-31T04:49:50.266Z,99.99
2019-03-31T04:50:52.059Z,99.99
2019-03-31T04:51:50.241Z,99.99
2019-03-31T04:52:50.230Z,99.99
2019-03-31T04:53:50.229Z,99.99
2019-03-31T04:54:50.207Z,99.99
2019-03-31T04:55:50.194Z,99.99
2019-03-31T04:56:50.183Z,99.99
2019-03-31T04:57:50.171Z,99.99
2019-03-31T04:58:50.160Z,99.99
2019-03-31T04:59:50.148Z,99.99
2019-03-31T05:00:50.136Z,99.99
2019-03-31T05:01:50.184Z,99.99
2019-03-31T05:02:50.114Z,99.99
2019-03-31T05:04:04.041Z,99.99
2019-03-31T05:04:50.127Z,99.99
2019-03-31T05:05:50.110Z,99.99
2019-03-31T05:06:50.066Z,99.99
2019-03-31T05:07:50.054Z,99.99
2019-03-31T05:08:50.049Z,99.99
2019-03-31T05:09:50.036Z,99.99
2019-03-31T05:10:50.024Z,99.99
2019-03-31T05:11:50.009Z,99.99
2019-03-31T05:12:50.001Z,99.99
2019-03-31T05:13:49.990Z,99.99
2019-03-31T05:14:49.972Z,99.99
2019-03-31T05:15:49.960Z,99.99
2019-03-31T05:16:49.949Z,99.99
2019-03-31T05:17:49.937Z,99.99
2019-03-31T05:18:49.933Z,99.99
2019-03-31T05:19:49.912Z,99.99
2019-03-31T05:20:49.902Z,99.99
2019-03-31T05:21:49.895Z,99.99
2019-03-31T05:22:52.662Z,99.99
2019-03-31T05:23:49.866Z,99.99
2019-03-31T05:24:49.855Z,99.99
2019-03-31T05:25:49.847Z,99.99
2019-03-31T05:26:49.837Z,99.99
2019-03-31T05:27:49.819Z,99.99
2019-03-31T05:28:49.806Z,99.99
2019-03-31T05:29:49.797Z,99.99
2019-03-31T05:30:49.786Z,99.99
2019-03-31T05:31:49.770Z,99.99
2019-03-31T05:32:49.762Z,99.99
2019-03-31T05:33:49.748Z,99.99
2019-03-31T05:34:49.741Z,99.99
2019-03-31T05:35:49.727Z,99.99
2019-03-31T05:36:49.716Z,99.99
2019-03-31T05:37:51.052Z,99.99
2019-03-31T05:38:49.689Z,99.99
2019-03-31T05:39:49.677Z,99.99
2019-03-31T05:40:49.673Z,99.99
2019-03-31T05:41:49.654Z,99.99
2019-03-31T05:42:49.645Z,99.99
2019-03-31T05:43:49.630Z,99.99
2019-03-31T05:44:49.620Z,99.99
2019-03-31T05:45:52.313Z,99.99
2019-03-31T05:46:49.595Z,99.99
2019-03-31T05:47:49.591Z,99.99
2019-03-31T05:48:49.584Z,99.99
2019-03-31T05:49:49.560Z,99.99
2019-03-31T05:50:49.550Z,99.99
2019-03-31T05:51:49.537Z,99.99
2019-03-31T05:52:49.526Z,99.99
2019-03-31T05:53:49.516Z,99.99
2019-03-31T05:54:49.508Z,99.99
2019-03-31T05:55:49.493Z,99.99
2019-03-31T05:56:49.481Z,99.99
2019-03-31T05:57:49.469Z,99.99
2019-03-31T05:58:49.463Z,99.99
2019-03-31T05:59:49.446Z,99.99
2019-03-31T06:00:49.448Z,99.99
2019-03-31T06:01:49.424Z,99.99
2019-03-31T06:02:49.413Z,99.99
2019-03-31T06:03:49.405Z,99.99
2019-03-31T06:04:49.393Z,99.99
2019-03-31T06:05:49.380Z,99.99
2019-03-31T06:06:49.370Z,99.99
2019-03-31T06:07:49.360Z,99.99
2019-03-31T06:08:49.351Z,99.99
2019-03-31T06:09:49.335Z,99.99
2019-03-31T06:10:49.324Z,99.99
2019-03-31T06:11:49.312Z,99.99
2019-03-31T06:12:49.302Z,99.99
2019-03-31T06:13:49.295Z,99.99
2019-03-31T06:14:49.280Z,99.99
2019-03-31T06:15:49.273Z,99.99
2019-03-31T06:16:49.257Z,99.99
2019-03-31T06:17:49.249Z,99.99
2019-03-31T06:18:49.240Z,99.99
2019-03-31T06:19:49.224Z,99.99
2019-03-31T06:20:49.216Z,99.99
2019-03-31T06:21:49.204Z,99.99
2019-03-31T06:22:49.193Z,99.99
2019-03-31T06:23:49.268Z,99.99
2019-03-31T06:24:49.171Z,99.99
2019-03-31T06:25:49.161Z,99.99
2019-03-31T06:26:49.151Z,99.99
2019-03-31T06:27:49.140Z,99.99
2019-03-31T06:28:49.131Z,99.99
2019-03-31T06:29:49.119Z,99.99
2019-03-31T06:30:49.109Z,99.99
2019-03-31T06:31:49.097Z,99.99
2019-03-31T06:32:49.089Z,99.99
2019-03-31T06:33:49.078Z,99.99
2019-03-31T06:34:49.069Z,99.99
2019-03-31T06:35:49.059Z,99.99
2019-03-31T06:36:49.046Z,99.99
2019-03-31T06:37:49.038Z,99.99
2019-03-31T06:38:49.027Z,99.99
2019-03-31T06:39:49.018Z,99.99
2019-03-31T06:40:49.006Z,99.99
2019-03-31T06:41:48.999Z,99.99
2019-03-31T06:42:48.996Z,99.99
2019-03-31T06:43:48.976Z,99.99
2019-03-31T06:44:48.969Z,99.99
2019-03-31T06:45:48.964Z,99.99
2019-03-31T06:46:48.947Z,99.99
2019-03-31T06:47:48.940Z,99.99
2019-03-31T06:48:48.927Z,99.99
2019-03-31T06:49:48.917Z,99.99
2019-03-31T06:50:48.909Z,99.99
2019-03-31T06:51:48.898Z,99.99
2019-03-31T06:52:48.888Z,99.99
2019-03-31T06:53:48.879Z,99.99
2019-03-31T06:54:48.872Z,99.99
2019-03-31T06:55:48.861Z,99.99
2019-03-31T06:56:48.850Z,99.99
2019-03-31T06:57:48.843Z,99.99
2019-03-31T06:58:48.834Z,99.99
2019-03-31T06:59:48.821Z,99.99
2019-03-31T07:00:48.814Z,99.99
2019-03-31T07:01:48.803Z,99.99
2019-03-31T07:02:48.797Z,99.99
2019-03-31T07:03:48.784Z,99.99
2019-03-31T07:05:00.486Z,99.99
2019-03-31T07:05:48.766Z,99.99
2019-03-31T07:06:48.760Z,99.99
2019-03-31T07:07:48.747Z,99.99
2019-03-31T07:08:48.745Z,99.13
2019-03-31T07:09:48.728Z,98.65
2019-03-31T07:10:48.720Z,99.03
2019-03-31T07:11:48.710Z,98.94
2019-03-31T07:12:48.702Z,98.84
2019-03-31T07:13:48.693Z,98.08
2019-03-31T07:14:48.684Z,97.79
2019-03-31T07:15:48.675Z,97.31
2019-03-31T07:16:48.668Z,96.75
2019-03-31T07:17:48.658Z,97.41
2019-03-31T07:18:48.651Z,96.55
2019-03-31T07:19:48.640Z,96.27
2019-03-31T07:20:48.634Z,96.32
2019-03-31T07:21:48.626Z,96.17
2019-03-31T07:22:48.615Z,95.36
2019-03-31T07:23:48.606Z,95.27
2019-03-31T07:24:48.597Z,94.70
2019-03-31T07:25:48.589Z,94.60
2019-03-31T07:26:48.588Z,94.51
2019-03-31T07:27:48.617Z,93.84
2019-03-31T07:28:48.563Z,93.84
2019-03-31T07:29:48.557Z,93.84
2019-03-31T07:30:48.546Z,93.93
2019-03-31T07:31:48.537Z,93.74
2019-03-31T07:32:48.529Z,92.93
2019-03-31T07:33:48.521Z,93.12
2019-03-31T07:34:48.525Z,92.08
2019-03-31T07:35:48.505Z,91.50
2019-03-31T07:36:48.497Z,90.55
2019-03-31T07:37:48.493Z,90.45
2019-03-31T07:38:48.557Z,90.45
2019-03-31T07:39:48.726Z,90.17
2019-03-31T07:40:48.493Z,90.08
2019-03-31T07:41:48.616Z,90.36
2019-03-31T07:42:51.152Z,90.45
2019-03-31T07:43:48.445Z,89.40
2019-03-31T07:44:48.439Z,89.60
2019-03-31T07:45:48.431Z,89.50
2019-03-31T07:46:48.426Z,89.98
2019-03-31T07:47:48.495Z,90.08
2019-03-31T07:48:48.413Z,89.98
2019-03-31T07:49:48.407Z,89.22
2019-03-31T07:50:48.408Z,89.60
2019-03-31T07:51:48.395Z,89.83
2019-03-31T07:52:48.389Z,89.64
2019-03-31T07:53:48.388Z,89.93
2019-03-31T07:54:48.380Z,89.64
2019-03-31T07:55:48.374Z,89.26
2019-03-31T07:56:48.370Z,88.69
2019-03-31T07:57:48.381Z,88.31
2019-03-31T07:58:48.359Z,88.12
2019-03-31T07:59:48.357Z,88.02
2019-03-31T08:00:48.349Z,88.12
2019-03-31T08:01:48.346Z,88.12
2019-03-31T08:02:48.341Z,88.02
2019-03-31T08:03:48.336Z,87.83
2019-03-31T08:04:48.331Z,87.83
2019-03-31T08:05:48.328Z,88.07
2019-03-31T08:06:48.323Z,87.87
2019-03-31T08:07:48.318Z,86.73
2019-03-31T08:08:48.322Z,86.16
2019-03-31T08:09:48.311Z,85.49
2019-03-31T08:10:48.306Z,85.87
2019-03-31T08:11:48.302Z,86.30
2019-03-31T08:12:48.298Z,85.21
2019-03-31T08:13:48.297Z,85.63
2019-03-31T08:14:48.291Z,85.44
2019-03-31T08:15:48.287Z,85.44
2019-03-31T08:16:48.283Z,85.05
2019-03-31T08:17:48.280Z,84.77
2019-03-31T08:18:48.278Z,84.77
2019-03-31T08:19:48.273Z,83.62
2019-03-31T08:20:48.272Z,83.39
2019-03-31T08:21:48.267Z,82.86
2019-03-31T08:22:48.264Z,83.43
2019-03-31T08:23:48.268Z,83.43
2019-03-31T08:24:48.257Z,84.29
2019-03-31T08:25:48.258Z,83.14
2019-03-31T08:26:48.252Z,81.52
2019-03-31T08:27:48.249Z,81.90
2019-03-31T08:28:48.246Z,82.48
2019-03-31T08:29:55.664Z,82.32
2019-03-31T08:30:48.241Z,80.70
2019-03-31T08:31:48.238Z,79.41
2019-03-31T08:32:48.237Z,78.79
2019-03-31T08:33:48.234Z,79.69
2019-03-31T08:34:48.236Z,78.36
2019-03-31T08:35:48.233Z,78.16
2019-03-31T08:36:48.228Z,77.21
2019-03-31T08:37:48.226Z,77.65
2019-03-31T08:38:48.224Z,77.84
2019-03-31T08:39:48.225Z,78.07
2019-03-31T08:40:48.219Z,77.65
2019-03-31T08:41:48.218Z,77.08
2019-03-31T08:42:48.225Z,77.94
2019-03-31T08:43:48.214Z,77.50
2019-03-31T08:44:48.214Z,77.87
2019-03-31T08:45:48.212Z,76.29
2019-03-31T08:46:48.211Z,75.91
2019-03-31T08:47:48.218Z,75.20
2019-03-31T08:48:48.211Z,75.68
2019-03-31T08:49:48.208Z,75.43
2019-03-31T08:50:48.208Z,74.53
2019-03-31T08:51:48.206Z,75.62
2019-03-31T08:52:48.207Z,76.10
2019-03-31T08:53:48.206Z,76.20
2019-03-31T08:54:48.208Z,74.80
2019-03-31T08:55:48.205Z,73.75
2019-03-31T08:56:48.205Z,73.36
2019-03-31T08:57:48.213Z,73.84
2019-03-31T08:58:48.205Z,72.50
2019-03-31T08:59:48.205Z,72.60
2019-03-31T09:00:48.205Z,72.98
2019-03-31T09:01:48.206Z,73.36
2019-03-31T09:02:48.207Z,74.04
2019-03-31T09:03:48.207Z,73.17
2019-03-31T09:04:48.208Z,72.69
2019-03-31T09:06:00.936Z,72.79
2019-03-31T09:06:48.211Z,72.69
2019-03-31T09:07:48.210Z,72.02
2019-03-31T09:08:48.211Z,72.66
2019-03-31T09:09:48.212Z,73.23
2019-03-31T09:10:48.213Z,73.17
2019-03-31T09:11:48.214Z,73.08
2019-03-31T09:12:48.760Z,73.94
2019-03-31T09:13:48.216Z,72.16
2019-03-31T09:14:48.221Z,72.16
2019-03-31T09:15:48.218Z,71.39
2019-03-31T09:16:48.220Z,71.11
2019-03-31T09:17:48.289Z,71.48
2019-03-31T09:18:48.224Z,71.73
2019-03-31T09:19:48.224Z,71.36
2019-03-31T09:20:48.225Z,71.64
2019-03-31T09:21:48.226Z,72.66
2019-03-31T09:22:48.228Z,73.43
2019-03-31T09:23:48.229Z,75.14
2019-03-31T09:24:48.229Z,73.94
2019-03-31T09:25:48.232Z,73.75
2019-03-31T09:26:48.232Z,72.22
2019-03-31T09:27:48.233Z,72.88
2019-03-31T09:28:48.233Z,73.08
2019-03-31T09:29:48.238Z,72.92
2019-03-31T09:30:48.238Z,71.68
2019-03-31T09:31:48.238Z,72.73
2019-03-31T09:32:48.244Z,71.39
2019-03-31T09:33:48.242Z,70.66
2019-03-31T09:34:48.246Z,70.85
2019-03-31T09:35:48.245Z,70.09
2019-03-31T09:36:48.247Z,69.51
2019-03-31T09:37:48.253Z,70.09
2019-03-31T09:38:48.626Z,69.26
2019-03-31T09:39:48.253Z,69.03
2019-03-31T09:40:48.255Z,68.87
2019-03-31T09:41:48.259Z,68.68
2019-03-31T09:42:48.263Z,67.72
2019-03-31T09:43:48.265Z,68.21
2019-03-31T09:44:48.264Z,68.94
2019-03-31T09:45:48.267Z,69.19
2019-03-31T09:46:48.269Z,70.72
2019-03-31T09:47:48.270Z,70.15
2019-03-31T09:48:48.272Z,71.01
2019-03-31T09:49:48.277Z,71.87
2019-03-31T09:50:48.278Z,70.91
2019-03-31T09:51:48.281Z,70.50
2019-03-31T09:52:48.288Z,71.45
2019-03-31T09:53:48.286Z,71.73
2019-03-31T09:54:48.286Z,71.48
2019-03-31T09:55:48.287Z,71.77
2019-03-31T09:56:48.292Z,70.81
2019-03-31T09:57:48.291Z,70.85
2019-03-31T09:58:48.292Z,70.18
2019-03-31T09:59:48.295Z,69.60
2019-03-31T10:00:48.299Z,69.42
2019-03-31T10:01:48.301Z,69.13
2019-03-31T10:02:48.302Z,69.60
2019-03-31T10:03:48.305Z,68.65
2019-03-31T10:04:48.307Z,69.03
2019-03-31T10:05:48.532Z,69.64
2019-03-31T10:06:48.313Z,68.87
2019-03-31T10:07:48.316Z,68.17
2019-03-31T10:08:48.318Z,69.42
2019-03-31T10:09:48.323Z,69.38
2019-03-31T10:10:48.328Z,69.76
2019-03-31T10:11:48.327Z,70.91
2019-03-31T10:12:48.329Z,71.42
2019-03-31T10:13:48.332Z,70.18
2019-03-31T10:14:48.335Z,69.19
2019-03-31T10:15:48.337Z,68.80
2019-03-31T10:16:48.340Z,70.81
2019-03-31T10:17:48.345Z,70.43
2019-03-31T10:18:48.361Z,69.95
2019-03-31T10:19:48.350Z,69.76
2019-03-31T10:20:48.352Z,70.15
2019-03-31T10:21:48.355Z,69.48
2019-03-31T10:22:48.356Z,70.24
2019-03-31T10:23:48.358Z,69.67
2019-03-31T10:24:48.360Z,69.48
2019-03-31T10:25:48.367Z,69.70
2019-03-31T10:26:48.367Z,69.09
2019-03-31T10:27:48.370Z,69.09
2019-03-31T10:28:48.372Z,69.23
2019-03-31T10:29:48.375Z,68.65
2019-03-31T10:30:48.378Z,68.17
2019-03-31T10:31:48.381Z,69.07
2019-03-31T10:32:48.384Z,68.01
2019-03-31T10:33:48.387Z,67.82
2019-03-31T10:34:48.391Z,68.49
2019-03-31T10:35:48.394Z,68.24
2019-03-31T10:36:48.401Z,67.28
2019-03-31T10:37:48.401Z,66.61
2019-03-31T10:38:48.405Z,66.38
2019-03-31T10:39:48.407Z,66.58
2019-03-31T10:40:48.415Z,66.58
2019-03-31T10:41:48.415Z,67.11
2019-03-31T10:42:48.419Z,68.84
2019-03-31T10:43:48.421Z,68.84
2019-03-31T10:44:48.425Z,68.49
2019-03-31T10:45:48.430Z,69.17
2019-03-31T10:46:48.432Z,67.18
2019-03-31T10:47:48.436Z,66.89
2019-03-31T10:48:48.439Z,67.28
2019-03-31T10:49:48.447Z,66.42
2019-03-31T10:50:48.449Z,66.22
2019-03-31T10:51:48.450Z,66.48
2019-03-31T10:52:48.454Z,67.72
2019-03-31T10:53:48.458Z,67.63
2019-03-31T10:54:48.462Z,67.50
2019-03-31T10:55:48.518Z,67.60
2019-03-31T10:56:48.472Z,67.76
2019-03-31T10:57:48.472Z,69.09
2019-03-31T10:58:48.479Z,69.38
2019-03-31T10:59:48.477Z,69.48
2019-03-31T11:00:48.490Z,69.35
2019-03-31T11:01:48.483Z,69.76
2019-03-31T11:02:48.486Z,69.76
2019-03-31T11:03:48.491Z,69.19
2019-03-31T11:04:48.492Z,70.09
2019-03-31T11:05:48.493Z,70.18
2019-03-31T11:06:58.952Z,68.46
2019-03-31T11:07:48.501Z,67.11
2019-03-31T11:08:48.500Z,68.46
2019-03-31T11:09:48.502Z,67.82
2019-03-31T11:10:48.505Z,67.34
2019-03-31T11:11:48.509Z,67.54
2019-03-31T11:12:50.796Z,67.02
2019-03-31T11:13:48.513Z,68.27
2019-03-31T11:14:48.515Z,68.07
2019-03-31T11:15:48.526Z,68.23
2019-03-31T11:16:48.518Z,69.29
2019-03-31T11:17:48.522Z,69.15
2019-03-31T11:18:48.523Z,69.95
2019-03-31T11:19:48.525Z,69.67
2019-03-31T11:20:48.527Z,69.09
2019-03-31T11:21:48.531Z,69.51
2019-03-31T11:22:48.538Z,68.30
2019-03-31T11:23:48.534Z,67.44
2019-03-31T11:24:48.535Z,66.00
2019-03-31T11:25:48.539Z,66.58
2019-03-31T11:26:48.539Z,66.29
2019-03-31T11:27:48.541Z,66.19
2019-03-31T11:28:48.546Z,66.09
2019-03-31T11:29:48.544Z,67.02
2019-03-31T11:30:48.546Z,67.08
2019-03-31T11:31:48.548Z,69.19
2019-03-31T11:32:48.548Z,68.13
2019-03-31T11:33:48.551Z,67.76
2019-03-31T11:34:48.553Z,68.42
2019-03-31T11:35:48.556Z,68.36
2019-03-31T11:36:48.556Z,67.27
2019-03-31T11:37:48.557Z,66.61
2019-03-31T11:38:48.603Z,67.21
2019-03-31T11:39:48.559Z,66.45
2019-03-31T11:40:48.562Z,66.64
2019-03-31T11:41:48.562Z,66.61
2019-03-31T11:42:48.564Z,67.18
2019-03-31T11:43:48.566Z,66.51
2019-03-31T11:44:48.566Z,67.27
2019-03-31T11:45:48.570Z,68.04
2019-03-31T11:46:48.570Z,67.76
2019-03-31T11:47:48.570Z,67.85
2019-03-31T11:48:48.571Z,67.76
2019-03-31T11:49:48.573Z,67.94
2019-03-31T11:50:48.574Z,67.18
2019-03-31T11:51:48.576Z,66.41
2019-03-31T11:52:48.575Z,67.37
2019-03-31T11:53:48.578Z,67.66
2019-03-31T11:54:48.580Z,67.18
2019-03-31T11:55:48.578Z,67.37
2019-03-31T11:56:48.579Z,67.18
2019-03-31T11:57:48.580Z,66.51
2019-03-31T11:58:48.583Z,66.35
2019-03-31T11:59:49.818Z,66.29
2019-03-31T12:00:48.587Z,65.62
2019-03-31T12:01:48.582Z,64.85
2019-03-31T12:02:48.583Z,65.62
2019-03-31T12:03:48.586Z,66.03
2019-03-31T12:04:48.584Z,64.25
2019-03-31T12:05:48.588Z,63.00
2019-03-31T12:06:48.587Z,61.88
2019-03-31T12:07:48.588Z,62.16
2019-03-31T12:08:48.588Z,60.92
2019-03-31T12:09:48.591Z,60.89
2019-03-31T12:10:48.592Z,60.31
2019-03-31T12:11:48.593Z,62.33
2019-03-31T12:12:48.594Z,61.63
2019-03-31T12:13:48.596Z,61.91
2019-03-31T12:14:59.782Z,62.81
2019-03-31T12:15:48.600Z,62.33
2019-03-31T12:16:48.599Z,63.19
2019-03-31T12:17:48.600Z,63.38
2019-03-31T12:18:48.600Z,62.84
2019-03-31T12:19:48.990Z,61.59
2019-03-31T12:20:48.602Z,60.70
2019-03-31T12:21:48.606Z,61.34
2019-03-31T12:22:48.605Z,62.71
2019-03-31T12:23:48.610Z,61.34
2019-03-31T12:24:48.606Z,61.82
2019-03-31T12:25:48.671Z,63.06
2019-03-31T12:26:48.607Z,61.79
2019-03-31T12:27:48.607Z,62.74
2019-03-31T12:28:48.610Z,63.13
2019-03-31T12:29:48.608Z,64.18
2019-03-31T12:30:48.610Z,63.32
2019-03-31T12:31:48.608Z,63.32
2019-03-31T12:32:48.608Z,63.03
2019-03-31T12:33:48.617Z,62.74
2019-03-31T12:34:48.609Z,63.80
2019-03-31T12:35:48.607Z,64.09
2019-03-31T12:36:48.608Z,63.64
2019-03-31T12:37:48.610Z,62.71
2019-03-31T12:38:48.613Z,61.34
2019-03-31T12:39:48.606Z,60.57
2019-03-31T12:40:48.617Z,61.66
2019-03-31T12:41:48.606Z,61.21
2019-03-31T12:42:48.606Z,60.75
2019-03-31T12:43:48.604Z,60.38
2019-03-31T12:44:48.604Z,58.74
2019-03-31T12:45:48.604Z,58.36
2019-03-31T12:46:48.604Z,58.55
2019-03-31T12:47:48.614Z,59.29
2019-03-31T12:48:48.601Z,58.33
2019-03-31T12:49:48.601Z,58.91
2019-03-31T12:50:48.603Z,60.05
2019-03-31T12:51:48.599Z,59.38
2019-03-31T12:52:51.175Z,60.35